Time;durP1;ratioP1;P1;durP2;ratioP2;P2;SDS_P1;SDS_P2;PMS_P1;PMS_P2;Temp;Humidity;BMP_temperature;BMP_pressure;BME280_temperature;BME280_humidity;BME280_pressure;Samples;Min_cycle;Max_cycle;Signal;HPM_P1;HPM_P2
2022/01/16 00:00:26;;;;;;;176.40;25.77;;;;;;;-143.53;100.00;58366.03;2100213;28;20241;-62
2022/01/16 00:04:11;;;;;;;200.40;24.90;;;;;;;-143.53;100.00;58366.03;2101067;28;20225;-62
2022/01/16 00:05:13;;;;;;;159.63;27.02;;;;;;;-143.53;100.00;58366.03;2098528;28;20216;-62
2022/01/16 00:06:16;;;;;;;102.50;23.92;;;;;;;-143.53;100.00;58366.03;2101795;28;20201;-62
2022/01/16 00:07:17;;;;;;;57.55;21.77;;;;;;;-143.53;100.00;58366.03;2101142;28;20199;-62
2022/01/16 00:08:19;;;;;;;42.15;20.33;;;;;;;-143.53;100.00;58366.03;2101178;28;20200;-62
2022/01/16 00:09:20;;;;;;;161.40;25.30;;;;;;;-143.53;100.00;58366.03;2101144;28;20222;-62
2022/01/16 00:10:24;;;;;;;73.68;21.95;;;;;;;-143.53;100.00;58366.03;2101808;28;20197;-62
2022/01/16 00:11:27;;;;;;;49.70;22.20;;;;;;;-143.53;100.00;58366.03;2100442;28;20827;-62
2022/01/16 00:12:29;;;;;;;50.03;21.17;;;;;;;-143.53;100.00;58366.03;2098028;28;20197;-62
2022/01/16 00:13:31;;;;;;;93.07;23.75;;;;;;;-143.53;100.00;58366.03;2100819;28;20209;-62
2022/01/16 00:14:33;;;;;;;164.23;26.13;;;;;;;-143.53;100.00;58366.03;2101199;28;20222;-62
2022/01/16 00:15:35;;;;;;;233.15;27.08;;;;;;;-143.53;100.00;58366.03;2101364;28;20288;-62
2022/01/16 00:16:37;;;;;;;144.63;25.13;;;;;;;-143.53;100.00;58366.03;2101166;28;20541;-62
2022/01/16 00:17:48;;;;;;;106.05;24.33;;;;;;;-143.53;100.00;58366.03;2100854;28;20218;-62
2022/01/16 00:18:52;;;;;;;159.10;23.55;;;;;;;-143.53;100.00;58366.03;2100832;28;20205;-62
2022/01/16 00:19:54;;;;;;;119.28;24.20;;;;;;;-143.53;100.00;58366.03;2100526;28;20224;-62
2022/01/16 00:20:56;;;;;;;184.40;26.27;;;;;;;-143.53;100.00;58366.03;2100634;28;20256;-62
2022/01/16 00:21:58;;;;;;;117.50;23.25;;;;;;;-143.53;100.00;58366.03;2100570;28;20204;-62
2022/01/16 00:22:59;;;;;;;75.22;21.85;;;;;;;-143.53;100.00;58366.03;2101431;28;20205;-62
2022/01/16 00:24:01;;;;;;;85.78;23.33;;;;;;;-143.53;100.00;58366.03;2101253;28;20728;-62
2022/01/16 00:25:03;;;;;;;54.47;22.17;;;;;;;-143.53;100.00;58366.03;2101481;28;20201;-62
2022/01/16 00:26:05;;;;;;;128.68;26.23;;;;;;;-143.53;100.00;58366.03;2100819;28;20202;-62
2022/01/16 00:27:07;;;;;;;116.97;25.42;;;;;;;-143.53;100.00;58366.03;2101438;28;20204;-62
2022/01/16 00:28:09;;;;;;;128.30;25.42;;;;;;;-143.53;100.00;58366.03;2101126;28;20197;-62
2022/01/16 00:29:12;;;;;;;109.65;26.50;;;;;;;-143.53;100.00;58366.03;2100725;28;20190;-62
2022/01/16 00:30:14;;;;;;;102.35;24.38;;;;;;;-143.53;100.00;58366.03;2100856;28;20197;-62
2022/01/16 00:31:17;;;;;;;104.75;25.67;;;;;;;-143.53;100.00;58366.03;2101158;28;20194;-62
2022/01/16 00:32:19;;;;;;;89.28;25.20;;;;;;;-143.53;100.00;58366.03;2099771;28;20545;-62
2022/01/16 00:33:20;;;;;;;92.68;24.50;;;;;;;-143.53;100.00;58366.03;2101529;28;20199;-62
2022/01/16 00:34:22;;;;;;;127.35;27.65;;;;;;;-143.53;100.00;58366.03;2101517;28;20224;-62
2022/01/16 00:35:23;;;;;;;95.40;25.30;;;;;;;-143.53;100.00;58366.03;2101009;28;20205;-62
2022/01/16 00:36:27;;;;;;;105.50;23.80;;;;;;;-143.53;100.00;58366.03;2100846;28;20193;-62
2022/01/16 00:37:28;;;;;;;73.43;22.80;;;;;;;-143.53;100.00;58366.03;2100831;28;20205;-62
2022/01/16 00:38:30;;;;;;;68.40;22.10;;;;;;;-143.53;100.00;58366.03;2101004;28;20204;-62
2022/01/16 00:39:31;;;;;;;76.93;23.45;;;;;;;-143.53;100.00;58366.03;2100455;28;20225;-62
2022/01/16 00:40:33;;;;;;;51.72;23.33;;;;;;;-143.53;100.00;58366.03;2101828;28;20198;-62
2022/01/16 00:41:35;;;;;;;124.07;22.08;;;;;;;-143.53;100.00;58366.03;2103236;28;20225;-62
2022/01/16 00:42:37;;;;;;;67.90;23.45;;;;;;;-143.53;100.00;58366.03;2102953;28;20204;-62
2022/01/16 00:43:38;;;;;;;42.75;21.77;;;;;;;-143.53;100.00;58366.03;2103430;28;20205;-63
2022/01/16 00:44:40;;;;;;;41.97;21.10;;;;;;;-143.53;100.00;58366.03;2102383;28;20242;-62
2022/01/16 00:45:41;;;;;;;103.35;22.52;;;;;;;-143.53;100.00;58366.03;2102428;28;20200;-62
2022/01/16 00:46:43;;;;;;;64.93;21.13;;;;;;;-143.53;100.00;58366.03;2102637;28;20209;-63
2022/01/16 00:47:45;;;;;;;68.95;20.73;;;;;;;-143.53;100.00;58366.03;2102713;28;20200;-63
2022/01/16 00:48:47;;;;;;;52.55;20.98;;;;;;;-143.53;100.00;58366.03;2102607;28;20299;-62
2022/01/16 00:49:48;;;;;;;77.97;22.10;;;;;;;-143.53;100.00;58366.03;2102568;28;20243;-62
2022/01/16 00:50:50;;;;;;;87.07;22.10;;;;;;;-143.53;100.00;58366.03;2101303;28;20216;-62
2022/01/16 00:51:51;;;;;;;78.13;21.50;;;;;;;-143.53;100.00;58366.03;2102584;28;20207;-62
2022/01/16 00:52:53;;;;;;;92.35;22.38;;;;;;;-143.53;100.00;58366.03;2102760;28;20197;-62
2022/01/16 00:53:55;;;;;;;105.90;22.08;;;;;;;-143.53;100.00;58366.03;2102657;28;20198;-63
2022/01/16 00:55:02;;;;;;;63.05;21.88;;;;;;;-143.53;100.00;58366.03;2102940;28;20262;-63
2022/01/16 00:56:04;;;;;;;94.50;20.80;;;;;;;-143.53;100.00;58366.03;2102326;28;20193;-62
2022/01/16 00:57:06;;;;;;;74.13;22.00;;;;;;;-143.53;100.00;58366.03;2102408;28;20194;-63
2022/01/16 00:58:08;;;;;;;61.72;21.20;;;;;;;-143.53;100.00;58366.03;2102789;28;20195;-63
2022/01/16 00:59:09;;;;;;;86.57;27.95;;;;;;;-143.53;100.00;58366.03;2093177;28;20201;-63
2022/01/16 01:00:11;;;;;;;65.97;24.90;;;;;;;-143.53;100.00;58366.03;2094390;28;20727;-62
2022/01/16 01:01:14;;;;;;;85.90;21.98;;;;;;;-143.53;100.00;58366.03;2100531;28;20201;-62
2022/01/16 01:02:16;;;;;;;105.93;22.60;;;;;;;-143.53;100.00;58366.03;2102615;28;20231;-63
2022/01/16 01:03:19;;;;;;;79.97;21.80;;;;;;;-143.53;100.00;58366.03;2102520;28;20197;-63
2022/01/16 01:04:21;;;;;;;67.35;22.50;;;;;;;-143.53;100.00;58366.03;2102338;28;20236;-63
2022/01/16 01:05:22;;;;;;;243.98;27.27;;;;;;;-143.53;100.00;58366.03;2102694;28;20214;-63
2022/01/16 01:06:24;;;;;;;108.30;23.75;;;;;;;-143.53;100.00;58366.03;2102771;28;20193;-63
2022/01/16 01:07:25;;;;;;;93.68;22.98;;;;;;;-143.53;100.00;58366.03;2102635;28;20207;-63
2022/01/16 01:08:29;;;;;;;67.90;21.15;;;;;;;-143.53;100.00;58366.03;2099879;28;20189;-63
2022/01/16 01:09:30;;;;;;;60.88;22.83;;;;;;;-143.53;100.00;58366.03;2102021;28;20560;-63
2022/01/16 01:10:37;;;;;;;77.68;21.02;;;;;;;-143.53;100.00;58366.03;2102772;28;20205;-63
2022/01/16 01:11:40;;;;;;;171.60;24.95;;;;;;;-143.53;100.00;58366.03;2101786;28;20197;-62
2022/01/16 01:12:56;;;;;;;89.13;22.02;;;;;;;-143.53;100.00;58366.03;2102694;28;20565;-63
2022/01/16 01:16:14;;;;;;;88.18;21.88;;;;;;;-143.53;100.00;58366.03;2101752;28;20188;-63
2022/01/16 01:17:23;;;;;;;48.78;20.65;;;;;;;-143.53;100.00;58366.03;2099073;28;20204;-63
2022/01/16 01:18:24;;;;;;;79.75;24.70;;;;;;;-143.53;100.00;58366.03;2101641;28;20224;-63
2022/01/16 01:19:32;;;;;;;126.32;23.50;;;;;;;-143.53;100.00;58366.03;2100383;28;20236;-63
2022/01/16 01:20:34;;;;;;;60.85;21.13;;;;;;;-143.53;100.00;58366.03;2101676;28;20231;-63
2022/01/16 01:21:36;;;;;;;71.47;21.85;;;;;;;-143.53;100.00;58366.03;2102147;28;20197;-63
2022/01/16 01:22:37;;;;;;;71.20;21.85;;;;;;;-143.53;100.00;58366.03;2102946;28;20196;-63
2022/01/16 01:23:39;;;;;;;40.40;20.30;;;;;;;-143.53;100.00;58366.03;2102248;28;20201;-63
2022/01/16 01:24:40;;;;;;;61.10;20.65;;;;;;;-143.53;100.00;58366.03;2099454;28;20222;-63
2022/01/16 01:25:43;;;;;;;42.47;19.42;;;;;;;-143.53;100.00;58366.03;2101589;28;20598;-63
2022/01/16 01:27:01;;;;;;;47.08;21.05;;;;;;;-143.53;100.00;58366.03;2102461;28;20197;-63
2022/01/16 01:28:03;;;;;;;88.03;20.95;;;;;;;-143.53;100.00;58366.03;2102837;28;20213;-63
2022/01/16 01:29:05;;;;;;;58.28;18.92;;;;;;;-143.53;100.00;58366.03;2101297;28;20198;-63
2022/01/16 01:30:09;;;;;;;42.20;18.35;;;;;;;-143.53;100.00;58366.03;2099737;28;20197;-63
2022/01/16 01:31:12;;;;;;;80.25;23.10;;;;;;;-143.53;100.00;58366.03;2102676;28;20203;-63
2022/01/16 01:32:13;;;;;;;61.15;19.35;;;;;;;-143.53;100.00;58366.03;2102120;28;20648;-63
2022/01/16 01:33:19;;;;;;;52.45;19.15;;;;;;;-143.53;100.00;58366.03;2101479;28;20612;-63
2022/01/16 01:34:21;;;;;;;37.85;18.60;;;;;;;-143.53;100.00;58366.03;2101649;28;20229;-62
2022/01/16 01:35:23;;;;;;;78.55;21.80;;;;;;;-143.53;100.00;58366.03;2102386;28;20212;-63
2022/01/16 01:36:24;;;;;;;64.72;19.73;;;;;;;-143.53;100.00;58366.03;2099973;28;20254;-63
2022/01/16 01:37:26;;;;;;;43.65;19.48;;;;;;;-143.53;100.00;58366.03;2102106;28;20207;-63
2022/01/16 01:38:27;;;;;;;39.30;20.10;;;;;;;-143.53;100.00;58366.03;2102008;28;20546;-62
2022/01/16 01:39:29;;;;;;;65.10;19.48;;;;;;;-143.53;100.00;58366.03;2100940;28;20227;-63
2022/01/16 01:40:30;;;;;;;44.60;20.35;;;;;;;-143.53;100.00;58366.03;2100512;28;20198;-63
2022/01/16 01:41:35;;;;;;;74.45;22.90;;;;;;;-143.53;100.00;58366.03;2102324;28;20565;-63
2022/01/16 01:42:49;;;;;;;66.95;22.48;;;;;;;-143.53;100.00;58366.03;2102206;28;20608;-63
2022/01/16 01:51:52;;;;;;;59.60;21.88;;;;;;;-143.53;100.00;58366.03;2100923;28;20207;-62
2022/01/16 01:52:55;;;;;;;88.25;22.10;;;;;;;-143.53;100.00;58366.03;2101614;28;20205;-62
2022/01/16 01:53:57;;;;;;;50.00;19.50;;;;;;;-143.53;100.00;58366.03;2102231;28;20667;-63
2022/01/16 01:54:59;;;;;;;72.75;20.02;;;;;;;-143.53;100.00;58366.03;2101651;28;20623;-62
2022/01/16 01:56:02;;;;;;;39.65;19.70;;;;;;;-143.53;100.00;58366.03;2101995;28;20200;-62
2022/01/16 01:57:04;;;;;;;109.70;21.83;;;;;;;-143.53;100.00;58366.03;2102011;28;20197;-62
2022/01/16 01:58:05;;;;;;;57.08;20.10;;;;;;;-143.53;100.00;58366.03;2091937;28;20202;-63
2022/01/16 01:59:07;;;;;;;69.38;20.90;;;;;;;-143.53;100.00;58366.03;2093714;28;20252;-62
2022/01/16 02:00:09;;;;;;;50.38;20.65;;;;;;;-143.53;100.00;58366.03;2102494;28;20205;-63
2022/01/16 02:01:11;;;;;;;40.42;16.58;;;;;;;-143.53;100.00;58366.03;2102092;28;20194;-63
2022/01/16 02:02:13;;;;;;;38.70;18.55;;;;;;;-143.53;100.00;58366.03;2102034;28;20664;-63
2022/01/16 02:03:29;;;;;;;52.67;17.88;;;;;;;-143.53;100.00;58366.03;2102152;28;20230;-62
2022/01/16 02:04:31;;;;;;;38.90;16.58;;;;;;;-143.53;100.00;58366.03;2093928;28;20572;-63
2022/01/16 02:05:33;;;;;;;79.15;18.75;;;;;;;-143.53;100.00;58366.03;2093790;28;20334;-63
2022/01/16 02:06:34;;;;;;;75.15;19.02;;;;;;;-143.53;100.00;58366.03;2102202;28;20663;-63
2022/01/16 02:07:36;;;;;;;104.88;20.35;;;;;;;-143.53;100.00;58366.03;2102071;28;20198;-62
2022/01/16 02:08:37;;;;;;;113.53;19.45;;;;;;;-143.53;100.00;58366.03;2101890;28;20209;-62
2022/01/16 02:09:39;;;;;;;101.38;21.70;;;;;;;-143.53;100.00;58366.03;2100276;28;20241;-62
2022/01/16 02:10:41;;;;;;;102.85;20.15;;;;;;;-143.53;100.00;58366.03;2102484;28;20203;-62
2022/01/16 02:11:44;;;;;;;78.95;20.65;;;;;;;-143.53;100.00;58366.03;2101922;28;20204;-62
2022/01/16 02:12:49;;;;;;;41.22;15.55;;;;;;;-143.53;100.00;58366.03;2101094;28;20199;-63
2022/01/16 02:13:58;;;;;;;35.45;16.40;;;;;;;-143.53;100.00;58366.03;2101570;28;20197;-62
2022/01/16 02:15:18;;;;;;;63.85;16.55;;;;;;;-143.53;100.00;58366.03;2101380;28;20223;-62
2022/01/16 02:29:01;;;;;;;82.95;16.10;;;;;;;-143.53;100.00;58366.03;2101078;28;20200;-63
2022/01/16 02:31:21;;;;;;;72.70;16.33;;;;;;;-143.53;100.00;58366.03;2100084;28;20673;-62
2022/01/16 02:32:40;;;;;;;41.97;13.77;;;;;;;-143.53;100.00;58366.03;2101077;28;20196;-62
2022/01/16 02:34:48;;;;;;;30.23;13.85;;;;;;;-143.53;100.00;58366.03;2101216;28;20226;-62
2022/01/16 02:35:55;;;;;;;63.83;15.65;;;;;;;-143.53;100.00;58366.03;2101995;28;20644;-63
2022/01/16 02:37:01;;;;;;;124.55;17.05;;;;;;;-143.53;100.00;58366.03;2100610;28;20203;-62
2022/01/16 02:38:05;;;;;;;90.18;17.17;;;;;;;-143.53;100.00;58366.03;2101713;28;20588;-62
2022/01/16 02:39:12;;;;;;;75.32;17.42;;;;;;;-143.53;100.00;58366.03;2101025;28;20200;-62
2022/01/16 02:40:19;;;;;;;93.88;17.95;;;;;;;-143.53;100.00;58366.03;2099043;28;20198;-62
2022/01/16 02:41:24;;;;;;;73.25;15.88;;;;;;;-143.53;100.00;58366.03;2101492;28;20253;-62
2022/01/16 02:42:28;;;;;;;48.45;15.32;;;;;;;-143.53;100.00;58366.03;2102008;28;20225;-62
2022/01/16 02:43:33;;;;;;;59.50;16.60;;;;;;;-143.53;100.00;58366.03;2101507;28;20191;-62
2022/01/16 02:44:44;;;;;;;65.07;18.88;;;;;;;-143.53;100.00;58366.03;2099778;28;20224;-62
2022/01/16 02:45:57;;;;;;;44.90;15.38;;;;;;;-143.53;100.00;58366.03;2101777;28;20215;-62
2022/01/16 02:47:00;;;;;;;40.90;17.30;;;;;;;-143.53;100.00;58366.03;2102172;28;20199;-62
2022/01/16 02:48:06;;;;;;;36.08;16.38;;;;;;;-143.53;100.00;58366.03;2101956;28;20286;-63
2022/01/16 02:49:18;;;;;;;82.07;18.92;;;;;;;-143.53;100.00;58366.03;2100256;28;20193;-62
2022/01/16 02:50:19;;;;;;;146.60;23.10;;;;;;;-143.53;100.00;58366.03;2101486;28;20531;-63
2022/01/16 02:51:25;;;;;;;170.38;21.75;;;;;;;-143.53;100.00;58366.03;2101763;28;20199;-62
2022/01/16 02:52:27;;;;;;;121.05;22.88;;;;;;;-143.53;100.00;58366.03;2102148;28;20557;-62
2022/01/16 02:53:28;;;;;;;75.20;19.20;;;;;;;-143.53;100.00;58366.03;2101211;28;20202;-62
2022/01/16 02:54:35;;;;;;;105.95;20.42;;;;;;;-143.53;100.00;58366.03;2101809;28;20232;-62
2022/01/16 02:55:43;;;;;;;82.40;18.35;;;;;;;-143.53;100.00;58366.03;2101586;28;20196;-62
2022/01/16 02:56:45;;;;;;;89.45;18.75;;;;;;;-143.53;100.00;58366.03;2101092;28;20559;-62
2022/01/16 02:57:48;;;;;;;77.57;18.48;;;;;;;-143.53;100.00;58366.03;2101423;28;20607;-61
2022/01/16 02:58:51;;;;;;;74.00;18.60;;;;;;;-143.53;100.00;58366.03;2101874;28;20201;-63
2022/01/16 02:59:55;;;;;;;38.90;16.83;;;;;;;-143.53;100.00;58366.03;2101267;28;20900;-62
2022/01/16 03:00:56;;;;;;;37.90;18.25;;;;;;;-143.53;100.00;58366.03;2101666;28;20199;-62
2022/01/16 03:01:58;;;;;;;32.28;17.05;;;;;;;-143.53;100.00;58366.03;2102103;28;20269;-62
2022/01/16 03:03:00;;;;;;;40.65;18.42;;;;;;;-143.53;100.00;58366.03;2099351;28;20224;-62
2022/01/16 03:04:01;;;;;;;86.57;21.52;;;;;;;-143.53;100.00;58366.03;2100679;28;20220;-62
2022/01/16 03:05:04;;;;;;;54.65;18.05;;;;;;;-143.53;100.00;58366.03;2101628;28;20543;-62
2022/01/16 03:06:06;;;;;;;56.35;18.65;;;;;;;-143.53;100.00;58366.03;2101362;28;20196;-62
2022/01/16 03:07:08;;;;;;;45.70;18.25;;;;;;;-143.53;100.00;58366.03;2101671;28;20205;-62
2022/01/16 03:08:09;;;;;;;39.22;19.17;;;;;;;-143.53;100.00;58366.03;2099577;28;20198;-62
2022/01/16 03:09:11;;;;;;;33.53;17.20;;;;;;;-143.53;100.00;58366.03;2100707;28;20567;-62
2022/01/16 03:10:49;;;;;;;52.38;18.08;;;;;;;-143.53;100.00;58366.03;2101261;28;20196;-60
2022/01/16 03:11:51;;;;;;;34.88;15.70;;;;;;;-143.53;100.00;58366.03;2100595;28;20199;-60
2022/01/16 03:12:53;;;;;;;43.17;16.65;;;;;;;-143.53;100.00;58366.03;2101190;28;20196;-60
2022/01/16 03:13:55;;;;;;;35.92;16.00;;;;;;;-143.53;100.00;58366.03;2101453;28;20198;-60
2022/01/16 03:14:56;;;;;;;51.97;18.50;;;;;;;-143.53;100.00;58366.03;2101338;28;20231;-60
2022/01/16 03:15:58;;;;;;;44.75;18.52;;;;;;;-143.53;100.00;58366.03;2101346;28;20218;-60
2022/01/16 03:17:00;;;;;;;65.47;19.77;;;;;;;-143.53;100.00;58366.03;2101304;28;20557;-60
2022/01/16 03:21:55;;;;;;;41.70;18.55;;;;;;;-143.53;100.00;58366.03;2100716;28;20193;-60
2022/01/16 03:22:56;;;;;;;36.17;17.98;;;;;;;-143.53;100.00;58366.03;2101545;28;20199;-61
2022/01/16 03:23:58;;;;;;;53.33;18.77;;;;;;;-143.53;100.00;58366.03;2100531;28;20224;-61
2022/01/16 03:25:00;;;;;;;46.08;18.23;;;;;;;-143.53;100.00;58366.03;2100997;28;20200;-60
2022/01/16 03:26:02;;;;;;;49.15;18.15;;;;;;;-143.53;100.00;58366.03;2100565;28;20217;-60
2022/01/16 03:27:10;;;;;;;41.85;19.15;;;;;;;-143.53;100.00;58366.03;2101122;28;20686;-60
2022/01/16 03:28:12;;;;;;;49.85;18.58;;;;;;;-143.53;100.00;58366.03;2100748;28;20195;-60
2022/01/16 03:29:13;;;;;;;108.28;22.63;;;;;;;-143.53;100.00;58366.03;2100809;28;20195;-61
2022/01/16 03:30:15;;;;;;;36.90;17.88;;;;;;;-143.53;100.00;58366.03;2100689;28;20195;-60
2022/01/16 03:31:16;;;;;;;44.63;18.85;;;;;;;-143.53;100.00;58366.03;2101809;28;20196;-60
2022/01/16 03:32:20;;;;;;;45.33;19.48;;;;;;;-143.53;100.00;58366.03;2101672;28;20191;-61
2022/01/16 03:33:22;;;;;;;51.70;20.52;;;;;;;-143.53;100.00;58366.03;2099614;28;20191;-61
2022/01/16 03:34:24;;;;;;;146.38;22.17;;;;;;;-143.53;100.00;58366.03;2100553;28;20220;-60
2022/01/16 03:35:25;;;;;;;102.85;24.63;;;;;;;-143.53;100.00;58366.03;2101348;28;20192;-61
2022/01/16 03:36:27;;;;;;;75.35;21.45;;;;;;;-143.53;100.00;58366.03;2099492;28;20199;-60
2022/01/16 03:37:28;;;;;;;139.43;23.50;;;;;;;-143.53;100.00;58366.03;2100803;28;20195;-60
2022/01/16 03:38:30;;;;;;;79.80;22.73;;;;;;;-143.53;100.00;58366.03;2100984;28;20191;-60
2022/01/16 03:39:32;;;;;;;79.75;21.42;;;;;;;-143.53;100.00;58366.03;2100409;28;20693;-60
2022/01/16 03:40:34;;;;;;;43.05;19.83;;;;;;;-143.53;100.00;58366.03;2099946;28;20669;-61
2022/01/16 03:41:37;;;;;;;38.63;18.75;;;;;;;-143.53;100.00;58366.03;2101099;28;20694;-60
2022/01/16 03:42:39;;;;;;;44.65;19.88;;;;;;;-143.53;100.00;58366.03;2101066;28;20214;-61
2022/01/16 03:43:41;;;;;;;72.57;21.50;;;;;;;-143.53;100.00;58366.03;2100904;28;20196;-60
2022/01/16 03:44:43;;;;;;;77.18;19.00;;;;;;;-143.53;100.00;58366.03;2100774;28;20230;-62
2022/01/16 03:45:46;;;;;;;103.50;23.45;;;;;;;-143.53;100.00;58366.03;2100545;28;20276;-61
2022/01/16 03:46:48;;;;;;;87.72;21.75;;;;;;;-143.53;100.00;58366.03;2100492;28;20193;-60
2022/01/16 03:47:50;;;;;;;42.15;19.25;;;;;;;-143.53;100.00;58366.03;2101201;28;20207;-60
2022/01/16 03:48:52;;;;;;;31.15;16.98;;;;;;;-143.53;100.00;58366.03;2100565;28;20206;-61
2022/01/16 03:49:53;;;;;;;34.50;17.25;;;;;;;-143.53;100.00;58366.03;2101161;28;20242;-61
2022/01/16 03:50:55;;;;;;;44.90;16.92;;;;;;;-143.53;100.00;58366.03;2101055;28;20203;-60
2022/01/16 03:51:58;;;;;;;45.63;18.45;;;;;;;-143.53;100.00;58366.03;2100385;28;20196;-60
2022/01/16 03:52:59;;;;;;;48.05;16.60;;;;;;;-143.53;100.00;58366.03;2101610;28;20206;-60
2022/01/16 03:54:01;;;;;;;40.10;18.08;;;;;;;-143.53;100.00;58366.03;2100710;28;20193;-60
2022/01/16 03:55:03;;;;;;;66.72;19.60;;;;;;;-143.53;100.00;58366.03;2101653;28;20635;-60
2022/01/16 03:56:05;;;;;;;58.72;17.98;;;;;;;-143.53;100.00;58366.03;2101334;28;20202;-60
2022/01/16 03:57:06;;;;;;;75.25;17.80;;;;;;;-143.53;100.00;58366.03;2101205;28;20191;-60
2022/01/16 03:58:08;;;;;;;87.65;21.05;;;;;;;-143.53;100.00;58366.03;2101296;28;20648;-60
2022/01/16 03:59:10;;;;;;;38.95;18.58;;;;;;;-143.53;100.00;58366.03;2100657;28;20192;-60
2022/01/16 04:00:12;;;;;;;111.47;24.65;;;;;;;-143.53;100.00;58366.03;2101242;28;20790;-60
2022/01/16 04:01:14;;;;;;;122.60;25.10;;;;;;;-143.53;100.00;58366.03;2101290;28;20191;-61
2022/01/16 04:02:16;;;;;;;51.55;18.50;;;;;;;-143.53;100.00;58366.03;2101298;28;20274;-61
2022/01/16 04:03:18;;;;;;;97.38;20.40;;;;;;;-143.53;100.00;58366.03;2091890;28;20200;-61
2022/01/16 04:04:20;;;;;;;116.55;22.85;;;;;;;-143.53;100.00;58366.03;2091978;28;20228;-60
2022/01/16 04:05:22;;;;;;;35.45;17.90;;;;;;;-143.53;100.00;58366.03;2101408;28;20196;-60
2022/01/16 04:06:24;;;;;;;40.45;18.77;;;;;;;-143.53;100.00;58366.03;2100721;28;20208;-60
2022/01/16 04:07:30;;;;;;;44.20;19.10;;;;;;;-143.53;100.00;58366.03;2098859;28;20199;-60
2022/01/16 04:08:32;;;;;;;42.80;19.30;;;;;;;-143.53;100.00;58366.03;2101552;28;20195;-61
2022/01/16 04:09:34;;;;;;;49.47;20.15;;;;;;;-143.53;100.00;58366.03;2098547;28;20773;-60
2022/01/16 04:10:36;;;;;;;55.25;17.95;;;;;;;-143.53;100.00;58366.03;2092507;28;20807;-61
2022/01/16 04:11:44;;;;;;;52.13;18.95;;;;;;;-143.53;100.00;58366.03;2092279;28;20212;-60
2022/01/16 04:12:46;;;;;;;78.95;20.50;;;;;;;-143.53;100.00;58366.03;2098638;28;20195;-61
2022/01/16 04:13:51;;;;;;;50.65;20.35;;;;;;;-143.53;100.00;58366.03;2100999;28;20221;-61
2022/01/16 04:15:55;;;;;;;131.00;24.98;;;;;;;-143.53;100.00;58366.03;2102548;28;20234;-60
2022/01/16 04:16:56;;;;;;;66.68;20.77;;;;;;;-143.53;100.00;58366.03;2103322;28;20195;-60
2022/01/16 04:17:59;;;;;;;61.72;22.15;;;;;;;-143.53;100.00;58366.03;2103075;28;20206;-60
2022/01/16 04:19:01;;;;;;;90.43;22.13;;;;;;;-143.53;100.00;58366.03;2101771;28;20204;-60
2022/01/16 04:20:03;;;;;;;41.78;19.23;;;;;;;-143.53;100.00;58366.03;2102538;28;20805;-60
2022/01/16 04:21:05;;;;;;;147.60;23.55;;;;;;;-143.53;100.00;58366.03;2102654;28;20200;-60
2022/01/16 04:22:07;;;;;;;69.85;19.60;;;;;;;-143.53;100.00;58366.03;2100859;28;20197;-60
2022/01/16 04:23:10;;;;;;;34.35;17.85;;;;;;;-143.53;100.00;58366.03;2102429;28;20192;-60
2022/01/16 04:24:11;;;;;;;49.35;18.00;;;;;;;-143.53;100.00;58366.03;2102861;28;20196;-60
2022/01/16 04:25:13;;;;;;;176.95;25.35;;;;;;;-143.53;100.00;58366.03;2102801;28;20213;-60
2022/01/16 04:26:16;;;;;;;87.65;19.85;;;;;;;-143.53;100.00;58366.03;2102276;28;20241;-60
2022/01/16 04:27:18;;;;;;;95.40;21.17;;;;;;;-143.53;100.00;58366.03;2102552;28;20544;-60
2022/01/16 04:28:24;;;;;;;55.88;17.95;;;;;;;-143.53;100.00;58366.03;2103452;28;20202;-60
2022/01/16 04:29:26;;;;;;;44.97;20.35;;;;;;;-143.53;100.00;58366.03;2102343;28;20234;-60
2022/01/16 04:30:27;;;;;;;39.45;18.38;;;;;;;-143.53;100.00;58366.03;2102962;28;20199;-60
2022/01/16 04:31:29;;;;;;;52.25;19.73;;;;;;;-143.53;100.00;58366.03;2102366;28;20198;-60
2022/01/16 04:32:31;;;;;;;43.08;17.98;;;;;;;-143.53;100.00;58366.03;2103205;28;20203;-60
2022/01/16 04:33:32;;;;;;;34.17;19.20;;;;;;;-143.53;100.00;58366.03;2103100;28;20199;-60
2022/01/16 04:34:34;;;;;;;48.30;17.80;;;;;;;-143.53;100.00;58366.03;2102621;28;20223;-60
2022/01/16 04:35:36;;;;;;;37.63;17.00;;;;;;;-143.53;100.00;58366.03;2102461;28;20218;-60
2022/01/16 04:36:37;;;;;;;58.25;17.15;;;;;;;-143.53;100.00;58366.03;2102007;28;20207;-60
2022/01/16 04:37:39;;;;;;;30.10;16.08;;;;;;;-143.53;100.00;58366.03;2102348;28;20199;-60
2022/01/16 04:39:01;;;;;;;40.88;18.13;;;;;;;-143.53;100.00;58366.03;2100357;28;20199;-60
2022/01/16 04:40:04;;;;;;;37.90;16.45;;;;;;;-143.53;100.00;58366.03;2102594;28;20245;-60
2022/01/16 04:43:48;;;;;;;43.95;19.35;;;;;;;-143.53;100.00;58366.03;2102612;28;20204;-60
2022/01/16 04:44:52;;;;;;;139.10;25.10;;;;;;;-143.53;100.00;58366.03;2102270;28;20561;-60
2022/01/16 04:45:54;;;;;;;37.97;18.88;;;;;;;-143.53;100.00;58366.03;2102778;28;20197;-60
2022/01/16 04:46:55;;;;;;;33.00;17.10;;;;;;;-143.53;100.00;58366.03;2101756;28;20255;-60
2022/01/16 04:47:57;;;;;;;27.55;17.23;;;;;;;-143.53;100.00;58366.03;2103160;28;20555;-61
2022/01/16 04:49:00;;;;;;;55.63;18.23;;;;;;;-143.53;100.00;58366.03;2101185;28;20207;-61
2022/01/16 04:50:02;;;;;;;43.13;18.48;;;;;;;-143.53;100.00;58366.03;2102527;28;20214;-60
2022/01/16 04:51:04;;;;;;;59.50;16.92;;;;;;;-143.53;100.00;58366.03;2102502;28;20199;-60
2022/01/16 04:52:05;;;;;;;42.70;16.70;;;;;;;-143.53;100.00;58366.03;2102474;28;20718;-60
2022/01/16 04:53:07;;;;;;;47.53;17.10;;;;;;;-143.53;100.00;58366.03;2102237;28;20200;-60
2022/01/16 04:54:09;;;;;;;41.00;17.20;;;;;;;-143.53;100.00;58366.03;2101333;28;20206;-60
2022/01/16 04:55:12;;;;;;;85.28;18.75;;;;;;;-143.53;100.00;58366.03;2102715;28;20184;-60
2022/01/16 04:56:14;;;;;;;46.20;17.27;;;;;;;-143.53;100.00;58366.03;2102886;28;20203;-60
2022/01/16 04:57:16;;;;;;;77.57;17.75;;;;;;;-143.53;100.00;58366.03;2102934;28;20808;-60
2022/01/16 04:58:20;;;;;;;73.80;18.55;;;;;;;-143.53;100.00;58366.03;2101880;28;20188;-60
2022/01/16 04:59:26;;;;;;;102.93;18.83;;;;;;;-143.53;100.00;58366.03;2101364;28;20610;-60
2022/01/16 05:00:27;;;;;;;39.65;18.42;;;;;;;-143.53;100.00;58366.03;2102929;28;20682;-60
2022/01/16 05:01:29;;;;;;;37.20;19.17;;;;;;;-143.53;100.00;58366.03;2102883;28;20194;-60
2022/01/16 05:02:30;;;;;;;42.28;18.25;;;;;;;-143.53;100.00;58366.03;2102364;28;20203;-60
2022/01/16 05:03:33;;;;;;;66.32;18.40;;;;;;;-143.53;100.00;58366.03;2089461;28;20200;-60
2022/01/16 05:04:35;;;;;;;57.70;18.70;;;;;;;-143.53;100.00;58366.03;2088059;28;20279;-60
2022/01/16 05:05:36;;;;;;;151.82;20.60;;;;;;;-143.53;100.00;58366.03;2102479;28;20196;-60
2022/01/16 05:06:38;;;;;;;58.47;17.40;;;;;;;-143.53;100.00;58366.03;2102579;28;20207;-60
2022/01/16 05:07:40;;;;;;;54.40;17.92;;;;;;;-143.53;100.00;58366.03;2102359;28;20209;-59
2022/01/16 05:08:41;;;;;;;45.83;17.58;;;;;;;-143.53;100.00;58366.03;2102788;28;20206;-60
2022/01/16 05:09:43;;;;;;;70.93;18.55;;;;;;;-143.53;100.00;58366.03;2101606;28;20279;-60
2022/01/16 05:10:45;;;;;;;62.78;18.00;;;;;;;-143.53;100.00;58366.03;2101982;28;20203;-60
2022/01/16 05:11:53;;;;;;;77.50;19.63;;;;;;;-143.53;100.00;58366.03;2103032;28;20196;-60
2022/01/16 05:13:04;;;;;;;47.88;17.95;;;;;;;-143.53;100.00;58366.03;2102116;28;20197;-60
2022/01/16 05:17:36;;;;;;;66.15;19.77;;;;;;;-143.53;100.00;58366.03;2102544;28;20233;-60
2022/01/16 05:18:39;;;;;;;88.95;18.95;;;;;;;-143.53;100.00;58366.03;2102589;28;20199;-60